Timiskaming Regional Airport
CYXR : rendu visible

Aérodrome :











RETROUVEZ-NOUS SUR...

 
LOGIN :

S'inscrire | Disclaimer

   EN    FR    IT 

 









Légende :    VFR   VFR Marginal   IFR   IFR Intensif   IFR Très Intensif
Visi : 
Plafond : 
>= 8 km
>= 3000ft
5 à 8 km
1000 à 3000 ft
1500m à 5 km
500 à 1000 ft
800 à 1500m
200 à 500 ft
< 800m
< 200 ft
Symboles :   Orages  Brouillard  Fortes neiges  Fortes précipitations  Vent > 20 kt






- Altitude de l'aérodrome : 798 ft
- Code IATA : YXR


CYXR - Timiskaming Regional

DERNIER METAR :
  • 231720Z AUTO 20014KT 9SM CLR M01/M02 A2981 RMK WSHFT AT 1710Z SLP112

METARs EXPIRÉS :
  • 231700Z AUTO 13012KT 9SM CLR M02/M03 A2982 RMK SLP115
  • 231600Z AUTO 13005KT 9SM CLR M05/M06 A2983 RMK SLP120
  • 231509Z AUTO 15007KT 6SM BR CLR M07/M08 A2985 RMK SLP125
  • 231459Z AUTO 15006KT 2 1/2SM BR FEW002 M08/M09 A2985 RMK VIS VRB 1 3/4-3 SLP126
  • 231457Z AUTO 15006KT 1 1/2SM BR FEW002 M08/M09 A2985 RMK SLP126
  • 231431Z AUTO 15006KT 1/8SM +SN VV002 M09/M10 A2986 RMK SLP128

TAF TAF CYXR
Valide du 23 à 13h jusqu'au 24 à 01h UTC


231240Z 2313/2401 16006KT 1/4SM FZFG VV001
TEMPO 2313/2315 3SM BR SCT015
FM231500 17010KT 4SM BR BKN015
TEMPO 2315/2318 P6SM NSW BKN025
FM231800 17015KT P6SM SCT020 BKN025
BECMG 2318/2320 18015G25KT RMK FCST BASED ON AUTO OBS. NXT FCST BY 231800Z



MET'MAP, la Météo Aéronautique d'un coup d'oeil ! - Copyright ORBIFLY Décembre 2007 - Disclaimer

ORBIFLY MET'MAP TEAM :

Programmation & Développement : Alexandra Zaïnal
Sur une idée originale de : Baudouin d'Aumeries
Assistance à la programmation : Marc-Olivier Méhu
Soutien technique & logistique : Manuel Goepfert

Contact : metmap@orbifly.com




SOURCES & CREDITS :

   NOAA       Earth
Advisory